Time;durP1;ratioP1;P1;durP2;ratioP2;P2;SDS_P1;SDS_P2;PMS_P1;PMS_P2;Temp;Humidity;BMP_temperature;BMP_pressure;BME280_temperature;BME280_humidity;BME280_pressure;Samples;Min_cycle;Max_cycle;Signal;HPM_P1;HPM_P2
2023/10/21 00:01:10;;;;;;;6.95;6.28;;;11.20;99.90;;;;;;4993905;28;20231;-86
2023/10/21 00:03:41;;;;;;;3.67;3.40;;;11.10;99.90;;;;;;4999001;28;20221;-84
2023/10/21 00:06:12;;;;;;;3.33;3.22;;;11.10;99.90;;;;;;5003901;28;20213;-85
2023/10/21 00:08:45;;;;;;;5.45;4.88;;;11.10;99.90;;;;;;4994621;28;20214;-86
2023/10/21 00:11:21;;;;;;;3.40;3.17;;;11.00;99.90;;;;;;4997396;28;20198;-87
2023/10/21 00:13:51;;;;;;;4.82;4.53;;;11.00;99.90;;;;;;4988412;28;20210;-85
2023/10/21 00:16:21;;;;;;;3.80;3.60;;;10.90;99.90;;;;;;4989092;28;20221;-83
2023/10/21 00:18:49;;;;;;;4.50;4.18;;;10.80;99.90;;;;;;4988363;28;20222;-82
2023/10/21 00:21:16;;;;;;;4.13;3.92;;;10.80;99.90;;;;;;4989922;28;20214;-82
2023/10/21 00:23:43;;;;;;;4.05;3.67;;;10.80;99.90;;;;;;4993233;28;20202;-84
2023/10/21 00:26:11;;;;;;;3.10;3.00;;;10.80;99.90;;;;;;4996877;28;20268;-85
2023/10/21 00:28:47;;;;;;;3.80;2.95;;;10.80;99.90;;;;;;4990259;28;20269;-83
2023/10/21 00:31:16;;;;;;;3.05;2.92;;;10.80;99.90;;;;;;4994988;28;20206;-79
2023/10/21 00:33:43;;;;;;;5.95;5.45;;;10.80;99.90;;;;;;4987110;28;20256;-84
2023/10/21 00:36:11;;;;;;;6.60;5.63;;;10.80;99.90;;;;;;4993516;28;20202;-84
2023/10/21 00:38:40;;;;;;;4.05;3.75;;;10.80;99.90;;;;;;4984627;28;20231;-85
2023/10/21 00:41:10;;;;;;;5.72;4.90;;;10.80;99.90;;;;;;4984657;28;20387;-86
2023/10/21 00:43:40;;;;;;;3.92;3.65;;;10.80;99.90;;;;;;4977032;28;20517;-84
2023/10/21 00:46:17;;;;;;;7.70;5.88;;;10.90;99.90;;;;;;4993703;28;20209;-84
2023/10/21 00:48:46;;;;;;;25.00;6.38;;;10.90;99.90;;;;;;4977081;28;20202;-84
2023/10/21 00:51:15;;;;;;;6.05;5.30;;;10.90;99.90;;;;;;4992701;28;20222;-84
2023/10/21 00:53:43;;;;;;;4.00;3.70;;;10.90;99.90;;;;;;4995657;28;20299;-85
2023/10/21 00:56:11;;;;;;;3.00;2.90;;;10.80;99.90;;;;;;4965817;28;20218;-85
2023/10/21 00:58:43;;;;;;;6.55;6.18;;;10.80;99.90;;;;;;4983386;28;20729;-84
2023/10/21 01:01:36;;;;;;;6.72;6.20;;;10.80;99.90;;;;;;4980924;28;20223;-86
2023/10/21 01:04:05;;;;;;;6.15;5.75;;;10.80;99.90;;;;;;4996042;28;20211;-86
2023/10/21 01:06:35;;;;;;;3.17;2.92;;;10.90;99.90;;;;;;4992801;28;20222;-85
2023/10/21 01:09:03;;;;;;;7.28;6.03;;;10.80;99.90;;;;;;4987429;28;20414;-87
2023/10/21 01:11:33;;;;;;;4.40;4.15;;;10.80;99.90;;;;;;4983656;28;20226;-84
2023/10/21 01:14:07;;;;;;;7.10;6.57;;;10.90;99.90;;;;;;4994358;28;20198;-86
2023/10/21 01:16:35;;;;;;;6.32;5.88;;;10.80;99.90;;;;;;4977206;28;20209;-86
2023/10/21 01:19:08;;;;;;;6.47;5.78;;;10.80;99.90;;;;;;4995143;28;20351;-86
2023/10/21 01:21:35;;;;;;;5.00;4.70;;;10.80;99.90;;;;;;4989756;28;20207;-85
2023/10/21 01:24:03;;;;;;;4.45;4.20;;;10.80;99.90;;;;;;4989901;28;20241;-87
2023/10/21 01:26:31;;;;;;;3.03;2.85;;;10.80;99.90;;;;;;4990290;28;20422;-89
2023/10/21 01:29:05;;;;;;;8.48;7.85;;;10.80;99.90;;;;;;4984483;28;20215;-85
2023/10/21 01:31:33;;;;;;;6.03;5.63;;;10.80;99.90;;;;;;4990932;28;20206;-85
2023/10/21 01:34:00;;;;;;;5.07;4.78;;;10.70;99.90;;;;;;4993322;28;20237;-85
2023/10/21 01:36:27;;;;;;;2.55;2.42;;;10.70;99.90;;;;;;4985961;28;20270;-84
2023/10/21 01:38:55;;;;;;;3.00;2.80;;;10.70;99.90;;;;;;4984515;28;20254;-86
2023/10/21 01:41:23;;;;;;;7.30;6.68;;;10.70;99.90;;;;;;4967025;28;20424;-87
2023/10/21 01:43:50;;;;;;;2.55;2.45;;;10.70;99.90;;;;;;4978940;28;20204;-86
2023/10/21 01:46:18;;;;;;;4.28;3.97;;;10.60;99.90;;;;;;4987597;28;20213;-84
2023/10/21 01:48:51;;;;;;;3.90;3.58;;;10.60;99.90;;;;;;4992488;28;20213;-86
2023/10/21 01:51:19;;;;;;;5.70;5.18;;;10.60;99.90;;;;;;4990464;28;20443;-85
2023/10/21 01:53:47;;;;;;;5.25;4.78;;;10.50;99.90;;;;;;4983999;28;20211;-87
2023/10/21 01:56:15;;;;;;;6.65;4.88;;;10.60;99.90;;;;;;4990668;28;20249;-86
2023/10/21 01:58:42;;;;;;;5.32;4.93;;;10.60;99.90;;;;;;4985935;28;20240;-87
2023/10/21 02:01:11;;;;;;;4.97;4.53;;;10.50;99.90;;;;;;4990829;28;20214;-87
2023/10/21 02:03:41;;;;;;;2.35;2.03;;;10.50;99.90;;;;;;4984701;28;20209;-86
2023/10/21 02:06:11;;;;;;;1.98;1.88;;;10.40;99.90;;;;;;4976896;28;20215;-90
2023/10/21 02:08:38;;;;;;;3.78;3.45;;;10.50;99.90;;;;;;4980821;28;20206;-89
2023/10/21 02:11:06;;;;;;;8.45;6.70;;;10.50;99.90;;;;;;4980508;28;20214;-87
2023/10/21 02:13:34;;;;;;;4.97;4.72;;;10.40;99.90;;;;;;4977434;28;20225;-86
2023/10/21 02:16:08;;;;;;;4.60;4.20;;;10.40;99.90;;;;;;4983200;28;20253;-87
2023/10/21 02:18:38;;;;;;;4.65;4.25;;;10.40;99.90;;;;;;4981985;28;20217;-89
2023/10/21 02:21:09;;;;;;;3.00;2.38;;;10.40;99.90;;;;;;4992356;28;20202;-84
2023/10/21 02:23:37;;;;;;;4.80;4.40;;;10.10;99.90;;;;;;4990259;28;20194;-84
2023/10/21 02:26:05;;;;;;;5.03;4.15;;;10.40;99.90;;;;;;4994390;28;20273;-83
2023/10/21 02:28:34;;;;;;;3.38;3.22;;;10.40;99.90;;;;;;4985716;28;20273;-81
2023/10/21 02:31:09;;;;;;;4.53;4.22;;;10.40;99.90;;;;;;4993657;28;20203;-80
2023/10/21 02:33:37;;;;;;;1.70;1.65;;;10.40;99.90;;;;;;4974702;28;20463;-83
2023/10/21 02:36:06;;;;;;;2.15;2.05;;;10.30;99.90;;;;;;4980324;28;20206;-82
2023/10/21 02:38:33;;;;;;;5.10;4.82;;;10.30;99.90;;;;;;4987517;28;20790;-82
2023/10/21 02:41:03;;;;;;;4.15;3.78;;;10.40;99.90;;;;;;4988566;28;20470;-83
2023/10/21 02:43:30;;;;;;;3.72;3.45;;;10.30;99.90;;;;;;4992875;28;20478;-81
2023/10/21 02:46:11;;;;;;;6.38;4.30;;;10.30;99.90;;;;;;4989735;28;20827;-84
2023/10/21 02:48:43;;;;;;;2.55;2.35;;;10.30;99.90;;;;;;4998746;28;20408;-85
2023/10/21 02:51:17;;;;;;;4.82;4.57;;;10.20;99.90;;;;;;5044061;23;20241;-88
2023/10/21 02:53:47;;;;;;;4.05;3.85;;;10.30;99.90;;;;;;5009714;28;20198;-87
2023/10/21 02:56:15;;;;;;;6.25;3.42;;;10.20;99.90;;;;;;5024086;28;20197;-89
2023/10/21 02:58:43;;;;;;;3.17;2.92;;;10.20;99.90;;;;;;5008878;28;20226;-86
2023/10/21 03:01:20;;;;;;;4.40;4.10;;;10.10;99.90;;;;;;5010145;28;20205;-83
2023/10/21 03:03:48;;;;;;;2.05;1.95;;;10.20;99.90;;;;;;4999809;28;20205;-85
2023/10/21 03:06:23;;;;;;;2.83;2.63;;;10.10;99.90;;;;;;5005159;28;20269;-87
2023/10/21 03:08:52;;;;;;;4.55;4.07;;;10.10;99.90;;;;;;5011900;28;20273;-86
2023/10/21 03:11:19;;;;;;;5.85;4.07;;;10.10;99.90;;;;;;5009699;28;20201;-85
2023/10/21 03:13:51;;;;;;;4.20;3.80;;;10.20;99.90;;;;;;5008270;28;20278;-85
2023/10/21 03:16:18;;;;;;;4.30;4.00;;;10.10;99.90;;;;;;5012760;28;20454;-82
2023/10/21 03:18:45;;;;;;;2.05;1.95;;;10.10;99.90;;;;;;5004573;28;20225;-83
2023/10/21 03:21:13;;;;;;;5.53;5.15;;;10.10;99.90;;;;;;5008836;28;20401;-85
2023/10/21 03:23:40;;;;;;;3.75;3.55;;;10.10;99.90;;;;;;4996093;28;20206;-87
2023/10/21 03:26:08;;;;;;;5.35;3.53;;;10.10;99.90;;;;;;5003216;28;20206;-84
2023/10/21 03:28:38;;;;;;;3.80;3.60;;;10.10;99.90;;;;;;5010523;28;20268;-83
2023/10/21 03:31:07;;;;;;;3.25;3.10;;;10.20;99.90;;;;;;5000670;28;20206;-83
2023/10/21 03:33:36;;;;;;;1.70;1.55;;;10.10;99.90;;;;;;5011595;28;20506;-85
2023/10/21 03:36:12;;;;;;;5.00;4.35;;;10.20;99.90;;;;;;5003438;28;20211;-85
2023/10/21 03:38:40;;;;;;;5.28;4.88;;;10.10;99.90;;;;;;5008534;28;20571;-83
2023/10/21 03:41:09;;;;;;;3.42;3.17;;;10.20;99.90;;;;;;5008192;28;20202;-83
2023/10/21 03:43:36;;;;;;;4.03;3.78;;;10.10;99.90;;;;;;5006892;28;20317;-82
2023/10/21 03:46:08;;;;;;;2.17;2.08;;;10.10;99.90;;;;;;5004339;28;20206;-81
2023/10/21 03:48:35;;;;;;;7.50;6.50;;;10.10;99.90;;;;;;5004951;28;20273;-82
2023/10/21 03:51:04;;;;;;;5.43;5.05;;;10.10;99.90;;;;;;5004591;28;20221;-83
2023/10/21 03:53:33;;;;;;;3.65;3.45;;;10.00;99.90;;;;;;5000130;28;20410;-85
2023/10/21 03:56:02;;;;;;;2.65;2.55;;;10.10;99.90;;;;;;5004190;28;20236;-84
2023/10/21 03:58:33;;;;;;;2.25;2.17;;;10.10;99.90;;;;;;5003497;28;20309;-84
2023/10/21 04:01:01;;;;;;;5.10;4.70;;;10.20;99.90;;;;;;5010238;28;20545;-84
2023/10/21 04:03:29;;;;;;;1.35;1.35;;;10.20;99.90;;;;;;5008285;28;20214;-81
2023/10/21 04:05:57;;;;;;;7.20;5.18;;;10.20;99.90;;;;;;5012416;28;20202;-82
2023/10/21 04:08:27;;;;;;;6.78;6.25;;;10.20;99.90;;;;;;5008799;28;20220;-82
2023/10/21 04:10:55;;;;;;;8.00;6.72;;;10.20;99.90;;;;;;5006615;28;20198;-85
2023/10/21 04:13:26;;;;;;;6.63;6.05;;;10.20;99.90;;;;;;5004666;28;20253;-83
2023/10/21 04:15:53;;;;;;;3.17;2.97;;;10.20;99.90;;;;;;5001211;28;20279;-81
2023/10/21 04:18:23;;;;;;;3.63;3.45;;;10.20;99.90;;;;;;5007700;28;20244;-87
2023/10/21 04:20:51;;;;;;;4.32;4.10;;;10.30;99.90;;;;;;5003336;28;20221;-85
2023/10/21 04:23:21;;;;;;;4.70;4.40;;;10.30;99.90;;;;;;5006121;28;20210;-84
2023/10/21 04:25:55;;;;;;;3.42;3.10;;;10.30;99.90;;;;;;5010702;28;20202;-85
2023/10/21 04:28:23;;;;;;;4.93;4.60;;;10.30;99.90;;;;;;5002166;28;20271;-87
2023/10/21 04:30:52;;;;;;;19.65;8.55;;;10.30;99.90;;;;;;4992289;28;20229;-85
2023/10/21 04:33:25;;;;;;;5.93;5.55;;;10.30;99.90;;;;;;5006292;28;20202;-85
2023/10/21 04:35:52;;;;;;;7.35;6.85;;;10.40;99.90;;;;;;5004765;28;20213;-85
2023/10/21 04:38:19;;;;;;;22.73;5.35;;;10.40;99.90;;;;;;5007419;28;20317;-90
2023/10/21 04:40:47;;;;;;;3.50;3.40;;;10.40;99.90;;;;;;5009652;28;20201;-85
2023/10/21 04:43:17;;;;;;;4.60;4.40;;;10.40;99.90;;;;;;5161729;23;20559;-88
2023/10/21 04:45:45;;;;;;;1.73;1.63;;;10.40;99.90;;;;;;5024403;28;20561;-87
2023/10/21 04:48:12;;;;;;;4.25;4.05;;;10.40;99.90;;;;;;5026962;28;20560;-89
2023/10/21 04:50:41;;;;;;;7.07;6.38;;;10.40;99.90;;;;;;5034237;28;20316;-87
2023/10/21 04:53:09;;;;;;;3.33;3.22;;;10.40;99.90;;;;;;5020978;28;20245;-87
2023/10/21 04:55:36;;;;;;;3.88;3.58;;;10.40;99.90;;;;;;5020903;28;20218;-86
2023/10/21 04:58:05;;;;;;;10.27;9.32;;;10.40;99.90;;;;;;5035150;28;20201;-87
2023/10/21 05:00:33;;;;;;;6.05;5.75;;;10.40;99.90;;;;;;5025870;28;20221;-89
2023/10/21 05:03:03;;;;;;;7.10;5.50;;;10.40;99.90;;;;;;5012698;28;20221;-86
2023/10/21 05:05:34;;;;;;;5.40;4.85;;;10.40;99.90;;;;;;5035661;28;20199;-85
2023/10/21 05:08:02;;;;;;;6.97;6.40;;;10.50;99.90;;;;;;5033842;28;20198;-85
2023/10/21 05:10:30;;;;;;;9.45;8.75;;;10.40;99.90;;;;;;5082946;23;20186;-88
2023/10/21 05:12:59;;;;;;;4.55;4.28;;;10.40;99.90;;;;;;5015407;28;20214;-85
2023/10/21 05:15:27;;;;;;;6.57;5.90;;;10.40;99.90;;;;;;5010534;28;20202;-86
2023/10/21 05:17:57;;;;;;;7.88;7.35;;;10.50;99.90;;;;;;5009676;28;20198;-85
2023/10/21 05:20:24;;;;;;;4.90;4.65;;;10.50;99.90;;;;;;5003653;28;20229;-85
2023/10/21 05:22:58;;;;;;;9.30;6.70;;;10.50;99.90;;;;;;5003400;28;20202;-82
2023/10/21 05:25:26;;;;;;;8.32;5.13;;;10.40;99.90;;;;;;5002457;28;20543;-84
2023/10/21 05:27:56;;;;;;;6.07;5.68;;;10.40;99.90;;;;;;4998489;28;20209;-85
2023/10/21 05:30:25;;;;;;;6.28;5.88;;;10.40;99.90;;;;;;5013486;28;20253;-85
2023/10/21 05:32:54;;;;;;;3.55;3.25;;;10.30;99.90;;;;;;4993600;28;20228;-86
2023/10/21 05:35:27;;;;;;;2.75;2.55;;;10.40;99.90;;;;;;5008289;28;20190;-86
2023/10/21 05:37:54;;;;;;;3.40;3.20;;;10.30;99.90;;;;;;5003541;28;20231;-86
2023/10/21 05:40:22;;;;;;;1.73;1.63;;;10.30;99.90;;;;;;5002571;28;20681;-85
2023/10/21 05:42:54;;;;;;;5.50;5.10;;;10.30;99.90;;;;;;5004378;28;20234;-85
2023/10/21 05:45:26;;;;;;;3.03;2.92;;;10.50;99.90;;;;;;5008599;28;20212;-86
2023/10/21 05:47:53;;;;;;;4.00;3.80;;;10.30;99.90;;;;;;4997171;28;20203;-84
2023/10/21 05:50:24;;;;;;;3.55;3.42;;;10.30;99.90;;;;;;5016377;28;20191;-84
2023/10/21 05:52:59;;;;;;;4.95;4.60;;;10.30;99.90;;;;;;5013962;28;20201;-86
2023/10/21 05:55:26;;;;;;;11.10;6.63;;;10.30;99.90;;;;;;5016267;28;20230;-86
2023/10/21 05:57:56;;;;;;;3.63;3.28;;;10.30;99.90;;;;;;5001353;28;20249;-84
2023/10/21 06:00:25;;;;;;;3.53;3.38;;;10.30;99.90;;;;;;5003652;28;20286;-86
2023/10/21 06:02:55;;;;;;;3.65;3.42;;;10.30;99.90;;;;;;5002879;28;20202;-85
2023/10/21 06:05:23;;;;;;;7.90;3.55;;;10.20;99.90;;;;;;4991235;28;20214;-84
2023/10/21 06:08:05;;;;;;;1.63;1.58;;;10.20;99.90;;;;;;5010350;28;20206;-82
2023/10/21 06:10:37;;;;;;;3.63;3.40;;;10.20;99.90;;;;;;5014773;28;20190;-85
2023/10/21 06:13:06;;;;;;;3.28;3.08;;;10.20;99.90;;;;;;5006753;28;20205;-85
2023/10/21 06:15:38;;;;;;;1.95;1.73;;;10.20;99.90;;;;;;5006819;28;20213;-85
2023/10/21 06:18:07;;;;;;;3.15;2.95;;;10.20;99.90;;;;;;5001005;28;20217;-83
2023/10/21 06:20:36;;;;;;;3.38;3.17;;;10.30;99.90;;;;;;4995301;28;20230;-82
2023/10/21 06:23:04;;;;;;;6.00;4.30;;;10.30;99.90;;;;;;5001635;28;20270;-83
2023/10/21 06:25:31;;;;;;;7.75;7.28;;;10.30;99.90;;;;;;5011925;28;20201;-83
2023/10/21 06:27:59;;;;;;;5.50;5.15;;;10.30;99.90;;;;;;5006093;28;20236;-83
2023/10/21 06:30:26;;;;;;;6.85;6.00;;;10.30;99.90;;;;;;4991065;28;20235;-83
2023/10/21 06:32:55;;;;;;;7.38;6.72;;;10.30;99.90;;;;;;5020657;28;20226;-83
2023/10/21 06:35:23;;;;;;;6.45;5.85;;;10.30;99.90;;;;;;5016053;28;20222;-85
2023/10/21 06:37:53;;;;;;;4.53;3.92;;;10.30;99.90;;;;;;5002385;28;20210;-84
2023/10/21 06:40:22;;;;;;;4.32;4.00;;;10.30;99.90;;;;;;5004382;28;20236;-82
2023/10/21 06:43:08;;;;;;;3.35;3.05;;;10.40;99.90;;;;;;4994160;28;20406;-84
2023/10/21 06:45:38;;;;;;;5.88;5.47;;;10.40;99.90;;;;;;5010660;28;20205;-83
2023/10/21 06:48:13;;;;;;;3.05;2.85;;;10.40;99.90;;;;;;4996565;28;20260;-84
2023/10/21 06:50:47;;;;;;;8.27;7.78;;;10.50;99.90;;;;;;4991331;28;20221;-83
2023/10/21 06:53:16;;;;;;;2.75;2.55;;;10.60;99.90;;;;;;4993106;28;20199;-84
2023/10/21 06:55:45;;;;;;;2.97;2.80;;;10.70;99.90;;;;;;5010547;28;20269;-84
2023/10/21 06:58:12;;;;;;;4.05;3.72;;;10.80;99.90;;;;;;4997343;28;20296;-85
2023/10/21 07:00:42;;;;;;;5.13;4.22;;;10.80;99.90;;;;;;5000427;28;20245;-84
2023/10/21 07:03:11;;;;;;;2.17;2.08;;;11.00;99.90;;;;;;5005946;28;20434;-83
2023/10/21 07:05:40;;;;;;;5.63;5.30;;;11.00;99.90;;;;;;4999822;28;20209;-83
2023/10/21 07:08:08;;;;;;;5.05;4.18;;;11.10;99.90;;;;;;5002195;28;20277;-85
2023/10/21 07:10:35;;;;;;;4.00;3.72;;;11.30;99.90;;;;;;5008789;28;20213;-85
2023/10/21 07:13:03;;;;;;;2.70;2.60;;;11.40;99.90;;;;;;4999663;28;20202;-83
2023/10/21 07:15:33;;;;;;;2.15;2.05;;;11.40;99.90;;;;;;4994727;28;20467;-84
2023/10/21 07:18:03;;;;;;;2.38;2.28;;;11.60;99.90;;;;;;5009248;28;20199;-83
2023/10/21 07:20:33;;;;;;;0.68;0.68;;;11.60;99.90;;;;;;5001870;28;20223;-82
2023/10/21 07:23:00;;;;;;;3.25;3.15;;;11.60;99.90;;;;;;5008456;28;20233;-85
2023/10/21 07:25:28;;;;;;;3.10;3.00;;;11.70;99.90;;;;;;5017128;28;20269;-85
2023/10/21 07:27:58;;;;;;;11.27;3.20;;;11.80;99.90;;;;;;5005625;28;20210;-84
2023/10/21 07:30:27;;;;;;;3.58;3.38;;;12.70;99.90;;;;;;5010392;28;20214;-86
2023/10/21 07:32:54;;;;;;;2.83;2.70;;;12.60;99.90;;;;;;5010181;28;20414;-86
2023/10/21 07:35:22;;;;;;;7.40;3.27;;;15.40;99.90;;;;;;5017582;28;20216;-84
2023/10/21 07:37:49;;;;;;;5.80;5.30;;;17.50;99.90;;;;;;5014038;28;21068;-83
2023/10/21 07:40:22;;;;;;;4.87;4.47;;;18.10;99.90;;;;;;5015326;28;20548;-83
2023/10/21 07:42:49;;;;;;;2.50;2.40;;;17.10;99.90;;;;;;5008950;28;20474;-85
2023/10/21 07:45:18;;;;;;;5.27;5.00;;;17.50;99.90;;;;;;5011575;28;20391;-87
2023/10/21 07:47:46;;;;;;;3.53;3.43;;;15.50;99.90;;;;;;5000954;28;20479;-84
2023/10/21 07:50:14;;;;;;;2.60;2.50;;;14.10;99.90;;;;;;5001146;28;20448;-85
2023/10/21 07:52:42;;;;;;;3.10;2.93;;;13.30;99.90;;;;;;4991321;28;20503;-85
2023/10/21 07:55:12;;;;;;;3.77;3.57;;;13.50;99.90;;;;;;5007970;28;20486;-85
2023/10/21 07:57:49;;;;;;;4.30;4.00;;;15.80;99.90;;;;;;5015249;28;20410;-85
2023/10/21 08:00:16;;;;;;;2.43;2.33;;;18.00;99.90;;;;;;5008347;28;20554;-85
2023/10/21 08:02:43;;;;;;;2.97;2.87;;;18.70;99.90;;;;;;5013216;28;20503;-87
2023/10/21 08:05:14;;;;;;;1.80;1.73;;;18.80;99.90;;;;;;5008672;28;20455;-83
2023/10/21 08:07:41;;;;;;;2.17;2.07;;;18.50;99.90;;;;;;5017148;28;20429;-86
2023/10/21 08:10:10;;;;;;;3.20;3.00;;;18.70;99.90;;;;;;5009208;28;20476;-87
2023/10/21 08:12:37;;;;;;;2.90;2.80;;;18.50;99.90;;;;;;5016778;28;20515;-87
2023/10/21 08:15:10;;;;;;;1.97;1.87;;;18.20;99.90;;;;;;5015632;28;20489;-86
2023/10/21 08:17:39;;;;;;;2.50;2.40;;;18.20;99.90;;;;;;5007946;28;20444;-89
2023/10/21 08:20:07;;;;;;;2.47;2.37;;;17.70;99.90;;;;;;5010575;28;20859;-89
2023/10/21 08:22:42;;;;;;;3.73;3.53;;;17.30;99.90;;;;;;5006299;28;20690;-91
2023/10/21 08:25:09;;;;;;;2.53;2.43;;;17.80;99.90;;;;;;5018664;28;20413;-86
2023/10/21 08:27:39;;;;;;;3.70;3.47;;;17.20;99.90;;;;;;5011810;28;20415;-84
2023/10/21 08:30:09;;;;;;;1.33;1.33;;;17.00;99.90;;;;;;5001875;28;20703;-88
2023/10/21 08:32:47;;;;;;;6.23;4.10;;;17.30;99.90;;;;;;5009501;28;20540;-88
2023/10/21 08:35:17;;;;;;;3.77;3.57;;;17.00;99.90;;;;;;5005671;28;20478;-86
2023/10/21 08:37:58;;;;;;;2.00;1.90;;;17.30;99.90;;;;;;4996075;28;20401;-86
2023/10/21 08:40:29;;;;;;;4.20;4.00;;;17.50;99.90;;;;;;5001986;28;20514;-85
2023/10/21 08:43:04;;;;;;;5.00;4.73;;;17.30;99.90;;;;;;4999706;28;20467;-86
2023/10/21 08:45:35;;;;;;;2.17;2.07;;;17.50;99.90;;;;;;5004598;28;20407;-86
2023/10/21 08:48:05;;;;;;;1.73;1.63;;;17.70;99.90;;;;;;5013383;28;20452;-84
2023/10/21 08:50:35;;;;;;;5.57;5.07;;;17.90;99.90;;;;;;4999779;28;20821;-83
2023/10/21 08:53:11;;;;;;;4.50;4.20;;;17.80;99.90;;;;;;5012191;28;20518;-84
2023/10/21 08:55:39;;;;;;;2.10;2.00;;;17.90;99.90;;;;;;5015945;28;20432;-85
2023/10/21 08:58:07;;;;;;;4.87;4.47;;;17.90;99.90;;;;;;5002576;28;20505;-82
2023/10/21 09:00:38;;;;;;;3.03;2.90;;;17.40;99.90;;;;;;5002755;28;20609;-82
2023/10/21 09:03:08;;;;;;;4.03;3.60;;;17.30;99.90;;;;;;5008440;28;20433;-82
2023/10/21 09:05:56;;;;;;;3.83;3.50;;;17.20;99.90;;;;;;5002103;28;20510;-82
2023/10/21 09:08:34;;;;;;;3.30;3.10;;;17.30;99.90;;;;;;4999526;28;20418;-84
2023/10/21 09:11:08;;;;;;;4.83;4.53;;;17.30;99.90;;;;;;5001057;28;20514;-84
2023/10/21 09:13:37;;;;;;;15.20;5.03;;;17.40;99.90;;;;;;5006749;28;20445;-83
2023/10/21 09:16:19;;;;;;;2.27;2.10;;;17.60;99.90;;;;;;5003796;28;20818;-81
2023/10/21 09:18:57;;;;;;;2.93;2.83;;;17.80;99.90;;;;;;4998136;28;20789;-82
2023/10/21 09:21:40;;;;;;;5.97;2.23;;;17.40;99.90;;;;;;5000959;28;20512;-86
2023/10/21 09:24:11;;;;;;;4.40;4.13;;;17.40;99.90;;;;;;5004460;28;20548;-82
2023/10/21 09:26:43;;;;;;;3.93;3.70;;;17.60;99.90;;;;;;5004224;28;20440;-80
2023/10/21 09:29:12;;;;;;;2.00;1.90;;;17.50;99.90;;;;;;4995828;28;20489;-82
2023/10/21 09:31:48;;;;;;;6.23;5.73;;;17.30;99.90;;;;;;5003444;28;20456;-82
2023/10/21 09:34:27;;;;;;;3.13;2.93;;;17.30;99.90;;;;;;5001444;28;20444;-82
2023/10/21 09:36:55;;;;;;;2.77;2.60;;;17.60;99.90;;;;;;5012395;28;20474;-84
2023/10/21 09:39:25;;;;;;;7.40;2.53;;;17.90;99.90;;;;;;4995918;28;20430;-81
2023/10/21 09:41:53;;;;;;;4.43;3.27;;;18.20;99.90;;;;;;5010450;28;20604;-84
2023/10/21 09:44:20;;;;;;;1.50;1.50;;;18.00;99.90;;;;;;5007523;28;20945;-83
2023/10/21 09:46:54;;;;;;;4.87;4.57;;;17.80;99.90;;;;;;5001657;28;20506;-88
2023/10/21 09:49:24;;;;;;;1.73;1.70;;;17.80;99.90;;;;;;5001250;28;20526;-82
2023/10/21 09:52:04;;;;;;;3.47;3.30;;;18.10;99.90;;;;;;4991893;28;20459;-82
2023/10/21 09:54:46;;;;;;;5.37;5.07;;;18.00;99.90;;;;;;5006577;28;20427;-83
2023/10/21 09:57:14;;;;;;;2.07;1.97;;;17.70;99.90;;;;;;5002774;28;20490;-82
2023/10/21 09:59:46;;;;;;;2.27;2.07;;;17.90;99.90;;;;;;4998343;28;20525;-85
2023/10/21 10:02:14;;;;;;;2.50;2.30;;;17.90;99.90;;;;;;5003948;28;20498;-86
2023/10/21 10:04:43;;;;;;;4.00;3.60;;;18.10;99.90;;;;;;5005149;28;20480;-83
2023/10/21 10:07:12;;;;;;;6.60;6.20;;;18.20;99.90;;;;;;4999393;28;20423;-81
2023/10/21 10:09:55;;;;;;;2.13;2.03;;;18.10;99.90;;;;;;5001281;28;20891;-81
2023/10/21 10:12:25;;;;;;;1.87;1.77;;;18.40;99.90;;;;;;4999463;28;20524;-83
2023/10/21 10:14:55;;;;;;;3.53;3.33;;;18.40;99.90;;;;;;5006026;28;20423;-81
2023/10/21 10:17:45;;;;;;;2.40;2.30;;;18.30;99.90;;;;;;4994435;28;20423;-84
2023/10/21 10:20:22;;;;;;;1.47;1.47;;;18.30;99.90;;;;;;5000292;28;20462;-82
2023/10/21 10:23:09;;;;;;;3.27;3.07;;;18.20;99.90;;;;;;4998989;28;20422;-85
2023/10/21 10:25:39;;;;;;;3.57;3.30;;;18.60;99.90;;;;;;4997027;28;20489;-81
2023/10/21 10:28:19;;;;;;;5.00;4.60;;;18.50;99.90;;;;;;4998818;28;20479;-84
2023/10/21 10:30:52;;;;;;;2.10;2.00;;;18.60;99.90;;;;;;4997737;28;20447;-82
2023/10/21 10:33:31;;;;;;;1.57;1.53;;;18.80;99.90;;;;;;4996092;28;20422;-85
2023/10/21 10:36:00;;;;;;;4.60;4.30;;;18.60;99.90;;;;;;5003020;28;20482;-81
2023/10/21 10:38:34;;;;;;;3.70;3.50;;;18.50;99.90;;;;;;5000687;28;20477;-81
2023/10/21 10:41:06;;;;;;;2.80;2.60;;;18.80;99.90;;;;;;4998190;28;20501;-81
2023/10/21 10:43:35;;;;;;;1.93;1.83;;;18.80;99.90;;;;;;5001475;28;20463;-83
2023/10/21 10:46:04;;;;;;;1.93;1.83;;;19.00;99.90;;;;;;5000518;28;20797;-81
2023/10/21 10:48:34;;;;;;;2.70;2.50;;;18.90;99.90;;;;;;5004845;28;20406;-80
2023/10/21 10:51:10;;;;;;;1.00;1.00;;;18.80;99.90;;;;;;5003624;28;20791;-81
2023/10/21 10:53:39;;;;;;;1.10;1.10;;;18.80;99.90;;;;;;4993677;28;20973;-82
2023/10/21 10:56:18;;;;;;;1.20;1.20;;;18.80;99.90;;;;;;4995653;28;20432;-84
2023/10/21 10:58:46;;;;;;;1.70;1.60;;;19.00;99.90;;;;;;5003830;28;20403;-81
2023/10/21 11:01:27;;;;;;;2.13;2.03;;;19.10;99.90;;;;;;5006212;28;20533;-84
2023/10/21 11:03:56;;;;;;;2.53;2.33;;;19.00;99.90;;;;;;4991635;28;20437;-81
2023/10/21 11:06:29;;;;;;;4.50;3.63;;;18.70;99.90;;;;;;5000821;28;20808;-81
2023/10/21 11:08:56;;;;;;;3.63;3.37;;;19.00;99.90;;;;;;5001174;28;20424;-86
2023/10/21 11:11:24;;;;;;;1.63;1.53;;;19.10;99.90;;;;;;5002365;28;20506;-81
2023/10/21 11:13:50;;;;;;;4.53;4.13;;;19.10;99.90;;;;;;5002414;28;20440;-81
2023/10/21 11:16:18;;;;;;;1.67;1.57;;;19.20;99.90;;;;;;5006388;28;20575;-81
2023/10/21 11:18:45;;;;;;;2.43;2.23;;;19.30;99.90;;;;;;5011054;28;20638;-80
2023/10/21 11:21:13;;;;;;;4.27;3.70;;;19.20;99.90;;;;;;5007926;28;20481;-84
2023/10/21 11:23:40;;;;;;;2.30;2.20;;;19.50;99.90;;;;;;5011346;28;20478;-82
2023/10/21 11:26:09;;;;;;;2.10;1.90;;;19.50;99.90;;;;;;5004272;28;20422;-86
2023/10/21 11:28:38;;;;;;;2.50;2.40;;;19.40;99.90;;;;;;5008374;28;20452;-82
2023/10/21 11:31:08;;;;;;;1.53;1.43;;;19.50;99.90;;;;;;5002808;28;20429;-82
2023/10/21 11:33:35;;;;;;;2.13;2.03;;;19.40;99.90;;;;;;4992881;28;20465;-85
2023/10/21 11:36:04;;;;;;;1.43;1.43;;;19.60;99.90;;;;;;5006157;28;20453;-82
2023/10/21 11:38:32;;;;;;;2.30;2.20;;;19.70;99.90;;;;;;5001773;28;20763;-84
2023/10/21 11:41:01;;;;;;;1.73;1.63;;;19.60;99.90;;;;;;4999522;28;20472;-82
2023/10/21 11:43:35;;;;;;;6.57;4.67;;;19.70;99.90;;;;;;5002200;28;20785;-81
2023/10/21 11:46:08;;;;;;;1.90;1.80;;;19.60;99.90;;;;;;5007090;28;20413;-80
2023/10/21 11:48:37;;;;;;;3.27;2.73;;;19.60;99.90;;;;;;5010898;28;20446;-81
2023/10/21 11:51:11;;;;;;;3.67;3.47;;;19.60;99.90;;;;;;5004683;28;20425;-82
2023/10/21 11:53:38;;;;;;;4.60;4.30;;;19.60;99.90;;;;;;5017784;28;20464;-84
2023/10/21 12:00:29;;;;;;;1.80;1.70;;;19.80;99.90;;;;;;5019260;28;20419;-83
2023/10/21 12:03:20;;;;;;;2.57;2.37;;;19.90;99.90;;;;;;5013276;28;20467;-87
2023/10/21 12:11:11;;;;;;;0.97;0.97;;;20.00;99.90;;;;;;5006727;28;20493;-81
2023/10/21 12:13:57;;;;;;;0.83;0.83;;;19.90;99.90;;;;;;5015362;28;20450;-83
2023/10/21 12:22:20;;;;;;;1.03;1.03;;;19.80;99.90;;;;;;5005183;28;20459;-83
2023/10/21 12:36:21;;;;;;;1.07;1.07;;;19.60;99.90;;;;;;5008241;28;20469;-85
2023/10/21 12:39:19;;;;;;;1.80;1.70;;;19.50;99.90;;;;;;5000895;28;20436;-85
2023/10/21 12:41:52;;;;;;;0.70;0.70;;;19.60;99.90;;;;;;5007969;28;20472;-84
2023/10/21 12:44:23;;;;;;;2.00;1.90;;;19.90;99.90;;;;;;5010955;28;20429;-82
2023/10/21 12:46:57;;;;;;;0.83;0.83;;;19.80;99.90;;;;;;5009173;28;20410;-81
2023/10/21 12:49:30;;;;;;;3.03;2.83;;;19.70;99.90;;;;;;5005488;28;20455;-83
2023/10/21 12:51:58;;;;;;;1.57;1.47;;;19.70;99.90;;;;;;5009506;28;20752;-82
2023/10/21 12:54:30;;;;;;;1.13;1.13;;;19.70;99.90;;;;;;5005846;28;20448;-81
2023/10/21 12:56:58;;;;;;;3.10;2.87;;;19.60;99.90;;;;;;4999840;28;20419;-82
2023/10/21 12:59:25;;;;;;;0.83;0.83;;;19.80;99.90;;;;;;5004610;28;20453;-82
2023/10/21 13:01:53;;;;;;;1.73;1.20;;;19.70;99.90;;;;;;4995471;28;20509;-84
2023/10/21 13:04:20;;;;;;;1.00;1.00;;;19.70;99.90;;;;;;5006168;28;20418;-80
2023/10/21 13:06:48;;;;;;;0.83;0.83;;;19.70;99.90;;;;;;5002503;28;20444;-81
2023/10/21 13:09:21;;;;;;;0.80;0.80;;;19.70;99.90;;;;;;5006186;28;20637;-83
2023/10/21 13:11:52;;;;;;;0.70;0.70;;;19.90;99.90;;;;;;5013949;28;20487;-85
2023/10/21 13:14:23;;;;;;;1.07;1.03;;;19.90;99.90;;;;;;5021552;28;20436;-80
2023/10/21 13:16:52;;;;;;;0.73;0.73;;;19.80;99.90;;;;;;4999648;28;20621;-82
2023/10/21 13:19:21;;;;;;;0.90;0.90;;;19.70;99.90;;;;;;4999664;28;20443;-82
2023/10/21 13:21:55;;;;;;;0.80;0.80;;;19.60;99.90;;;;;;5002038;28;21101;-81
2023/10/21 13:24:22;;;;;;;1.33;1.10;;;19.40;99.90;;;;;;5003030;28;20418;-83
2023/10/21 13:26:51;;;;;;;1.20;1.20;;;19.40;99.90;;;;;;4999990;28;20510;-86
2023/10/21 13:29:20;;;;;;;1.20;1.20;;;19.50;99.90;;;;;;5006912;28;20501;-86